Altus Quartz Mountain Regional Airport


Codes: KAXS/AXS
Name: Altus Quartz Mountain Regional Airport
City: Altus
Country: United States
Elevation: 1433 ft.

Photos at Altus Quartz Mountain Regional Airport


   Photos courtesy of SpottingLog. You can add your own sightings and photos by signing up for a free trial today.



No photos found.

Weather at Altus Quartz Mountain Regional Airport


Time (UTC)DescriptionTempratureWindCloud coverageVisibilityPressureHumidity
18-Apr-2024 00:00Clear Sky32°C11 mph, S0%10000m1008hPa19%
18-Apr-2024 03:00Clear Sky29°C18 mph, SE0%10000m1008hPa36%
18-Apr-2024 06:00Clear Sky25°C18 mph, S0%10000m1008hPa58%
18-Apr-2024 09:00Clear Sky20°C13 mph, S0%10000m1007hPa88%
18-Apr-2024 12:00Clear Sky17°C9 mph, S1%10000m1008hPa77%
18-Apr-2024 15:00Clear Sky18°C25 mph, N1%10000m1013hPa57%
18-Apr-2024 18:00Few Clouds20°C25 mph, N18%10000m1016hPa48%
18-Apr-2024 21:00Scattered Clouds21°C20 mph, N35%10000m1016hPa45%
19-Apr-2024 00:00Scattered Clouds19°C18 mph, NE45%10000m1015hPa51%
19-Apr-2024 03:00Clear Sky15°C13 mph, NE0%10000m1020hPa61%
19-Apr-2024 06:00Clear Sky12°C16 mph, NE2%10000m1021hPa67%
19-Apr-2024 09:00Few Clouds11°C13 mph, NE12%10000m1021hPa71%
19-Apr-2024 12:00Broken Clouds9°C11 mph, NE54%10000m1023hPa75%
19-Apr-2024 15:00Overcast Clouds13°C16 mph, NE95%10000m1023hPa53%
19-Apr-2024 18:00Overcast Clouds17°C13 mph, E98%10000m1021hPa39%
19-Apr-2024 21:00Overcast Clouds19°C11 mph, E100%10000m1018hPa40%
20-Apr-2024 00:00Overcast Clouds18°C9 mph, E100%10000m1017hPa50%
20-Apr-2024 03:00Overcast Clouds15°C11 mph, NE100%10000m1019hPa53%
20-Apr-2024 06:00Overcast Clouds15°C16 mph, NE100%10000m1019hPa49%
20-Apr-2024 09:00Light Rain12°C18 mph, NE100%10000m1020hPa58%
20-Apr-2024 12:00Light Rain10°C16 mph, NE100%10000m1023hPa60%
20-Apr-2024 15:00Overcast Clouds11°C20 mph, NE100%10000m1024hPa49%
20-Apr-2024 18:00Overcast Clouds12°C20 mph, NE100%10000m1023hPa53%
20-Apr-2024 21:00Light Rain13°C13 mph, NE100%10000m1022hPa66%
21-Apr-2024 00:00Light Rain11°C13 mph, E100%10000m1021hPa85%
21-Apr-2024 03:00Overcast Clouds10°C11 mph, N100%10000m1022hPa90%
21-Apr-2024 06:00Light Rain11°C9 mph, NE100%10000m1023hPa92%
21-Apr-2024 09:00Light Rain10°C9 mph, NE100%10000m1023hPa94%
21-Apr-2024 12:00Light Rain9°C11 mph, NE100%10000m1024hPa90%
21-Apr-2024 15:00Light Rain9°C13 mph, NE100%10000m1026hPa88%
21-Apr-2024 18:00Overcast Clouds11°C9 mph, E100%10000m1025hPa75%
21-Apr-2024 21:00Overcast Clouds13°C7 mph, E99%10000m1023hPa66%
22-Apr-2024 00:00Overcast Clouds13°C7 mph, E100%10000m1021hPa65%
22-Apr-2024 03:00Overcast Clouds11°C9 mph, E99%10000m1022hPa70%
22-Apr-2024 06:00Overcast Clouds10°C7 mph, SE99%10000m1023hPa73%
22-Apr-2024 09:00Broken Clouds8°C4 mph, SE61%10000m1021hPa83%
22-Apr-2024 12:00Broken Clouds10°C9 mph, SE82%10000m1020hPa82%
22-Apr-2024 15:00Overcast Clouds14°C13 mph, S98%10000m1018hPa69%
22-Apr-2024 18:00Broken Clouds19°C18 mph, S75%10000m1016hPa54%
22-Apr-2024 21:00Clear Sky23°C18 mph, S4%10000m1012hPa47%